1°C Temp
-2°C Dewpoint
81% Humidity
Temperature
8 KM/H
5 MPH
4 KTS
100°
Due East

Wind Speed
Mostly Scattered
Clouds
Pressure 1002.92 (hPa) - 29.62 (in)
Visibility 6.2 (mi) - 10.0 (km)

Current Conditions
UKLI
Location 9(km)
Metar :UKLI 011500Z 10002MPS 9999 SCT053 01/M02 Q1003 NOSIG
Wed 1st December 18:00 pm

Airport